Time;durP1;ratioP1;P1;durP2;ratioP2;P2;SDS_P1;SDS_P2;PMS_P1;PMS_P2;Temp;Humidity;BMP_temperature;BMP_pressure;BME280_temperature;BME280_humidity;BME280_pressure;Samples;Min_cycle;Max_cycle;Signal;HPM_P1;HPM_P2
2021/09/02 00:01:34;;;;;;;10.80;8.07;;;13.70;99.80;;;;;;6132918;23;20451;-86
2021/09/02 00:04:02;;;;;;;9.77;6.13;;;13.70;99.80;;;;;;6167189;23;20476;-87
2021/09/02 00:06:30;;;;;;;11.10;6.50;;;13.70;99.80;;;;;;6154027;23;20432;-87
2021/09/02 00:08:58;;;;;;;8.70;6.23;;;13.70;99.80;;;;;;6167445;23;20463;-84
2021/09/02 00:11:26;;;;;;;11.20;7.60;;;13.70;99.80;;;;;;6172086;23;20436;-87
2021/09/02 00:13:56;;;;;;;11.27;7.07;;;13.70;99.80;;;;;;6147096;23;20450;-84
2021/09/02 00:16:24;;;;;;;18.30;7.33;;;13.70;99.80;;;;;;6169602;23;20441;-84
2021/09/02 00:18:52;;;;;;;10.57;6.20;;;13.60;99.80;;;;;;6172348;23;20437;-86
2021/09/02 00:21:20;;;;;;;15.40;7.37;;;13.60;99.80;;;;;;6175482;23;20444;-86
2021/09/02 00:23:48;;;;;;;9.83;6.90;;;13.60;99.80;;;;;;6171933;23;20441;-86
2021/09/02 00:26:16;;;;;;;13.30;8.23;;;13.60;99.80;;;;;;6171173;23;20515;-86
2021/09/02 00:28:44;;;;;;;11.73;6.33;;;13.60;99.80;;;;;;6170804;23;20516;-86
2021/09/02 00:31:14;;;;;;;11.87;8.10;;;13.60;99.80;;;;;;6164130;23;20770;-86
2021/09/02 00:33:42;;;;;;;14.17;8.13;;;13.50;99.80;;;;;;6166708;23;20437;-86
2021/09/02 00:36:10;;;;;;;11.87;7.40;;;13.50;99.80;;;;;;6180949;23;20764;-86
2021/09/02 00:38:38;;;;;;;13.97;8.00;;;13.50;99.80;;;;;;6160693;23;20784;-85
2021/09/02 00:41:06;;;;;;;12.40;8.20;;;13.40;99.80;;;;;;6165644;23;20552;-85
2021/09/02 00:43:38;;;;;;;11.90;8.20;;;13.30;99.80;;;;;;6168190;23;20519;-84
2021/09/02 00:46:06;;;;;;;11.40;8.00;;;13.30;99.80;;;;;;6134036;23;20440;-85
2021/09/02 00:48:36;;;;;;;12.77;8.13;;;13.30;99.80;;;;;;6167384;23;20468;-84
2021/09/02 00:51:04;;;;;;;13.60;7.47;;;13.20;99.80;;;;;;6178625;23;20533;-86
2021/09/02 00:53:33;;;;;;;10.33;7.40;;;13.10;99.80;;;;;;6179198;23;20735;-88
2021/09/02 00:56:01;;;;;;;13.67;8.70;;;13.10;99.80;;;;;;6178865;23;20433;-84
2021/09/02 00:58:29;;;;;;;13.33;8.90;;;13.10;99.80;;;;;;6176881;23;20450;-86
2021/09/02 01:00:57;;;;;;;11.27;8.40;;;13.10;99.80;;;;;;6117307;23;20499;-84
2021/09/02 01:03:25;;;;;;;11.60;7.27;;;13.10;99.80;;;;;;6162752;23;20436;-86
2021/09/02 01:05:55;;;;;;;20.83;9.13;;;13.00;99.80;;;;;;6179415;23;20447;-86
2021/09/02 01:08:23;;;;;;;19.40;9.27;;;13.10;99.80;;;;;;6171279;23;20451;-86
2021/09/02 01:10:51;;;;;;;15.17;7.73;;;13.00;99.80;;;;;;6164980;23;20450;-84
2021/09/02 01:13:21;;;;;;;11.23;8.33;;;13.00;99.80;;;;;;6166810;23;21201;-85
2021/09/02 01:15:49;;;;;;;14.90;8.73;;;13.00;99.80;;;;;;6161800;23;20474;-88
2021/09/02 01:18:17;;;;;;;16.97;9.57;;;13.00;99.80;;;;;;6128359;23;20451;-87
2021/09/02 01:20:45;;;;;;;14.60;8.27;;;12.90;99.80;;;;;;6165949;23;20432;-85
2021/09/02 01:23:18;;;;;;;13.17;9.43;;;12.90;99.80;;;;;;6141501;23;20441;-85
2021/09/02 01:25:46;;;;;;;14.63;9.20;;;12.90;99.80;;;;;;6137593;23;20499;-86
2021/09/02 01:28:15;;;;;;;13.87;7.93;;;12.80;99.80;;;;;;6128500;23;20437;-86
2021/09/02 01:30:44;;;;;;;14.70;8.37;;;12.80;99.80;;;;;;6141750;23;20451;-85
2021/09/02 01:33:16;;;;;;;17.90;8.57;;;12.80;99.80;;;;;;6159109;23;20439;-86
2021/09/02 01:35:46;;;;;;;14.57;10.10;;;12.80;99.80;;;;;;6172889;23;20440;-86
2021/09/02 01:38:14;;;;;;;13.13;8.33;;;12.80;99.80;;;;;;6175701;23;20785;-86
2021/09/02 01:40:47;;;;;;;16.70;9.00;;;12.80;99.80;;;;;;6170192;23;20438;-86
2021/09/02 01:43:17;;;;;;;14.80;8.67;;;12.80;99.80;;;;;;6168550;23;20810;-86
2021/09/02 01:45:45;;;;;;;16.63;9.60;;;12.80;99.80;;;;;;6162174;23;20444;-86
2021/09/02 01:48:14;;;;;;;15.53;9.40;;;12.80;99.80;;;;;;6155418;23;20522;-86
2021/09/02 01:50:42;;;;;;;15.97;9.40;;;12.80;99.80;;;;;;6161582;23;20527;-86
2021/09/02 01:53:13;;;;;;;13.60;8.67;;;12.70;99.80;;;;;;6162300;23;20519;-85
2021/09/02 01:55:44;;;;;;;13.10;8.00;;;12.70;99.80;;;;;;6167267;23;20444;-84
2021/09/02 01:58:12;;;;;;;16.30;9.67;;;12.70;99.80;;;;;;6172020;23;21150;-84
2021/09/02 02:00:40;;;;;;;15.90;9.60;;;12.70;99.80;;;;;;6123598;23;20528;-83
2021/09/02 02:03:08;;;;;;;12.67;8.90;;;12.70;99.80;;;;;;6168343;23;20409;-84
2021/09/02 02:05:37;;;;;;;29.23;9.13;;;12.60;99.80;;;;;;6184016;23;20917;-83
2021/09/02 02:08:06;;;;;;;17.83;10.60;;;12.60;99.80;;;;;;6184726;23;20437;-83
2021/09/02 02:10:34;;;;;;;14.77;9.63;;;12.60;99.80;;;;;;6184430;23;20439;-84
2021/09/02 02:13:04;;;;;;;14.93;9.33;;;12.60;99.80;;;;;;6184101;23;20416;-83
2021/09/02 02:15:32;;;;;;;15.50;8.53;;;12.50;99.80;;;;;;6184079;23;20396;-84
2021/09/02 02:18:00;;;;;;;20.33;10.37;;;12.50;99.80;;;;;;6183285;23;20465;-84
2021/09/02 02:20:28;;;;;;;13.53;8.97;;;12.50;99.80;;;;;;6183626;23;20520;-84
2021/09/02 02:22:56;;;;;;;12.83;8.70;;;12.40;99.80;;;;;;6182773;23;20427;-84
2021/09/02 02:25:24;;;;;;;18.00;9.87;;;12.50;99.80;;;;;;6182828;23;20491;-84
2021/09/02 02:27:52;;;;;;;12.17;8.60;;;12.50;99.80;;;;;;6182304;23;20437;-83
2021/09/02 02:30:21;;;;;;;15.13;10.63;;;12.40;99.80;;;;;;6181612;23;20432;-83
2021/09/02 02:32:50;;;;;;;16.50;10.20;;;12.40;99.80;;;;;;6184048;23;20419;-83
2021/09/02 02:35:20;;;;;;;15.00;9.77;;;12.40;99.80;;;;;;6183282;23;20452;-83
2021/09/02 02:37:50;;;;;;;18.17;8.20;;;12.50;99.80;;;;;;6183535;23;20412;-83
2021/09/02 02:40:18;;;;;;;13.60;8.53;;;12.50;99.80;;;;;;6183730;23;20464;-83
2021/09/02 02:42:48;;;;;;;15.23;9.27;;;12.40;99.80;;;;;;6181465;23;20404;-86
2021/09/02 02:45:16;;;;;;;13.83;8.40;;;12.40;99.80;;;;;;6179928;23;20405;-87
2021/09/02 02:47:45;;;;;;;14.60;9.60;;;12.40;99.80;;;;;;6180031;23;20476;-86
2021/09/02 02:50:13;;;;;;;16.80;9.70;;;12.30;99.80;;;;;;6179716;23;20431;-86
2021/09/02 02:52:41;;;;;;;14.20;9.50;;;12.30;99.80;;;;;;6180909;23;20408;-86
2021/09/02 02:55:10;;;;;;;23.53;9.70;;;12.30;99.80;;;;;;6179554;23;20415;-86
2021/09/02 02:57:38;;;;;;;15.23;9.30;;;12.30;99.80;;;;;;6181361;23;20404;-86
2021/09/02 03:00:08;;;;;;;17.03;9.73;;;12.20;99.80;;;;;;6178380;23;20443;-87
2021/09/02 03:02:36;;;;;;;17.03;9.40;;;12.30;99.80;;;;;;6181155;23;20422;-83
2021/09/02 03:05:07;;;;;;;18.80;9.73;;;12.20;99.80;;;;;;6185631;23;20409;-84
2021/09/02 03:07:36;;;;;;;16.00;10.13;;;12.30;99.80;;;;;;6185687;23;20465;-83
2021/09/02 03:10:05;;;;;;;14.43;9.63;;;12.30;99.80;;;;;;6185498;23;20988;-83
2021/09/02 03:12:34;;;;;;;14.10;8.80;;;12.30;99.80;;;;;;6184118;23;20426;-84
2021/09/02 03:15:03;;;;;;;15.00;9.97;;;12.30;99.80;;;;;;6185530;23;20432;-84
2021/09/02 03:17:32;;;;;;;15.10;9.30;;;12.30;99.80;;;;;;6185273;23;20411;-82
2021/09/02 03:20:00;;;;;;;15.63;9.87;;;12.40;99.80;;;;;;6184410;23;20442;-84
2021/09/02 03:22:29;;;;;;;22.10;9.50;;;12.40;99.80;;;;;;6185485;23;20402;-85
2021/09/02 03:24:57;;;;;;;13.63;9.83;;;12.40;99.80;;;;;;6182913;23;20408;-84
2021/09/02 03:27:25;;;;;;;13.30;9.30;;;12.40;99.80;;;;;;6183153;23;20419;-85
2021/09/02 03:29:54;;;;;;;18.80;9.73;;;12.40;99.80;;;;;;6184988;23;20424;-84
2021/09/02 03:32:22;;;;;;;19.70;9.70;;;12.40;99.80;;;;;;6183229;23;20412;-85
2021/09/02 03:34:50;;;;;;;14.60;9.20;;;12.40;99.80;;;;;;6185427;23;20393;-84
2021/09/02 03:37:18;;;;;;;17.93;10.37;;;12.40;99.80;;;;;;6184190;23;20423;-85
2021/09/02 03:39:47;;;;;;;14.27;9.60;;;12.30;99.80;;;;;;6183711;23;20424;-84
2021/09/02 03:42:15;;;;;;;19.87;10.00;;;12.30;99.80;;;;;;6184414;23;20401;-84
2021/09/02 03:44:43;;;;;;;14.30;9.00;;;12.30;99.80;;;;;;6184372;23;20495;-83
2021/09/02 03:47:11;;;;;;;19.57;9.40;;;12.30;99.80;;;;;;6184391;23;20413;-84
2021/09/02 03:49:39;;;;;;;13.20;9.23;;;12.30;99.80;;;;;;6184359;23;20455;-85
2021/09/02 03:52:08;;;;;;;12.73;9.60;;;12.30;99.80;;;;;;6184187;23;20405;-83
2021/09/02 03:54:36;;;;;;;14.87;10.00;;;12.30;99.80;;;;;;6184416;23;20399;-83
2021/09/02 03:57:06;;;;;;;20.80;10.23;;;12.30;99.80;;;;;;6184916;23;20919;-83
2021/09/02 03:59:34;;;;;;;10.43;8.13;;;12.30;99.80;;;;;;6184359;23;20431;-84
2021/09/02 04:02:02;;;;;;;16.00;10.43;;;12.30;99.80;;;;;;6184290;23;20397;-84
2021/09/02 04:04:30;;;;;;;15.07;9.37;;;12.30;99.80;;;;;;6184107;23;20882;-84
2021/09/02 04:06:58;;;;;;;17.57;9.10;;;12.30;99.80;;;;;;6184522;23;21029;-83
2021/09/02 04:09:27;;;;;;;19.23;10.03;;;12.30;99.80;;;;;;6184475;23;20909;-83
2021/09/02 04:11:55;;;;;;;15.90;9.93;;;12.30;99.80;;;;;;6183252;23;20391;-84
2021/09/02 04:14:25;;;;;;;22.57;11.00;;;12.30;99.80;;;;;;6184852;23;21043;-83
2021/09/02 04:16:55;;;;;;;19.03;8.83;;;12.20;99.80;;;;;;6184297;23;20502;-84
2021/09/02 04:19:24;;;;;;;21.53;10.30;;;12.20;99.80;;;;;;6183008;23;20453;-87
2021/09/02 04:21:52;;;;;;;21.97;10.03;;;12.20;99.80;;;;;;6182972;23;20408;-82
2021/09/02 04:24:20;;;;;;;21.87;10.60;;;12.20;99.80;;;;;;6185172;23;20893;-83
2021/09/02 04:26:48;;;;;;;14.70;8.93;;;12.20;99.80;;;;;;6184164;23;20773;-82
2021/09/02 04:29:16;;;;;;;16.63;9.73;;;12.20;99.80;;;;;;6186025;23;20952;-83
2021/09/02 04:31:46;;;;;;;14.93;9.00;;;12.20;99.80;;;;;;6185823;23;20471;-84
2021/09/02 04:34:14;;;;;;;14.30;9.90;;;12.20;99.80;;;;;;6185579;23;20467;-80
2021/09/02 04:36:42;;;;;;;18.70;11.33;;;12.10;99.80;;;;;;6185629;23;20404;-83
2021/09/02 04:39:10;;;;;;;23.27;10.30;;;12.10;99.80;;;;;;6184808;23;20400;-83
2021/09/02 04:41:38;;;;;;;15.83;10.13;;;12.10;99.80;;;;;;6185507;23;20420;-82
2021/09/02 04:44:06;;;;;;;16.43;10.13;;;12.10;99.80;;;;;;6184652;23;20420;-81
2021/09/02 04:46:34;;;;;;;16.17;9.43;;;12.10;99.80;;;;;;6181119;23;20420;-82
2021/09/02 04:49:03;;;;;;;18.37;10.43;;;12.10;99.80;;;;;;6182823;23;21013;-82
2021/09/02 04:51:31;;;;;;;21.73;12.03;;;12.10;99.80;;;;;;6182624;23;20979;-81
2021/09/02 04:53:59;;;;;;;20.80;10.90;;;12.10;99.80;;;;;;6182935;23;20430;-81
2021/09/02 04:56:27;;;;;;;21.50;10.90;;;12.10;99.80;;;;;;6184772;23;21063;-82
2021/09/02 04:58:55;;;;;;;18.87;10.97;;;12.10;99.80;;;;;;6183441;23;20388;-83
2021/09/02 05:01:23;;;;;;;25.80;11.40;;;12.10;99.80;;;;;;6182546;23;20419;-81
2021/09/02 05:03:52;;;;;;;18.50;9.97;;;12.00;99.80;;;;;;6183045;23;20479;-83
2021/09/02 05:06:21;;;;;;;20.40;11.30;;;12.10;99.80;;;;;;6185512;23;21178;-82
2021/09/02 05:08:49;;;;;;;23.80;10.97;;;;;;;;;;6184741;23;20854;-82
2021/09/02 05:11:17;;;;;;;24.50;11.03;;;12.10;99.80;;;;;;6185137;23;20429;-82
2021/09/02 05:13:45;;;;;;;19.10;10.03;;;12.00;99.80;;;;;;6183765;23;20401;-82
2021/09/02 05:16:13;;;;;;;16.80;11.40;;;12.10;99.80;;;;;;6184451;23;20408;-82
2021/09/02 05:18:41;;;;;;;17.73;10.60;;;12.00;99.80;;;;;;6183670;23;20411;-83
2021/09/02 05:21:09;;;;;;;18.87;10.03;;;12.00;99.80;;;;;;6184524;23;20518;-84
2021/09/02 05:23:39;;;;;;;16.83;11.77;;;12.10;99.80;;;;;;6184969;23;20439;-83
2021/09/02 05:26:07;;;;;;;19.30;10.83;;;12.10;99.80;;;;;;6184061;23;20400;-84
2021/09/02 05:28:35;;;;;;;18.20;11.70;;;12.10;99.80;;;;;;6184716;23;20431;-84
2021/09/02 05:31:03;;;;;;;16.80;10.33;;;12.10;99.80;;;;;;6184373;23;20507;-84
2021/09/02 05:33:31;;;;;;;20.33;11.27;;;12.10;99.80;;;;;;6184699;23;20877;-84
2021/09/02 05:35:59;;;;;;;18.50;12.07;;;12.10;99.80;;;;;;6185125;23;20414;-84
2021/09/02 05:38:27;;;;;;;16.00;10.37;;;12.10;99.80;;;;;;6185228;23;20415;-84
2021/09/02 05:40:57;;;;;;;20.93;10.40;;;12.20;99.80;;;;;;6184318;23;20424;-83
2021/09/02 05:43:25;;;;;;;19.50;11.07;;;12.20;99.80;;;;;;6184734;23;20406;-84
2021/09/02 05:45:53;;;;;;;17.40;9.57;;;12.20;99.80;;;;;;6184375;23;21010;-85
2021/09/02 05:48:21;;;;;;;19.83;10.57;;;12.30;99.80;;;;;;6184823;23;20893;-83
2021/09/02 05:50:50;;;;;;;19.43;10.90;;;12.30;99.80;;;;;;6184031;23;20437;-84
2021/09/02 05:53:18;;;;;;;19.53;11.57;;;;;;;;;;6183844;23;20404;-84
2021/09/02 05:55:48;;;;;;;17.30;10.77;;;12.40;99.80;;;;;;6184399;23;20405;-85
2021/09/02 05:58:17;;;;;;;19.00;11.40;;;12.40;99.80;;;;;;6144507;23;20440;-84
2021/09/02 06:00:45;;;;;;;20.10;10.80;;;12.50;99.80;;;;;;6110346;23;20437;-85
2021/09/02 06:03:14;;;;;;;20.53;10.20;;;12.50;99.80;;;;;;6149276;23;20850;-85
2021/09/02 06:05:42;;;;;;;21.00;11.47;;;;;;;;;;6166647;23;20507;-84
2021/09/02 06:08:10;;;;;;;19.70;10.00;;;12.60;99.80;;;;;;6158355;23;20441;-85
2021/09/02 06:10:38;;;;;;;19.17;10.67;;;12.70;99.80;;;;;;6156448;23;20764;-84
2021/09/02 06:13:06;;;;;;;17.77;10.30;;;12.70;99.80;;;;;;6171378;23;20436;-84
2021/09/02 06:15:36;;;;;;;21.83;10.70;;;12.80;99.80;;;;;;6175158;23;20437;-83
2021/09/02 06:18:04;;;;;;;20.90;10.70;;;12.80;99.80;;;;;;6171178;23;20433;-82
2021/09/02 06:20:32;;;;;;;17.23;10.53;;;12.90;99.80;;;;;;6179113;23;20444;-82
2021/09/02 06:23:00;;;;;;;16.53;10.00;;;13.00;99.80;;;;;;6179702;23;20433;-81
2021/09/02 06:25:28;;;;;;;14.73;9.47;;;13.00;99.80;;;;;;6179618;23;20459;-81
2021/09/02 06:27:56;;;;;;;19.37;11.70;;;13.10;99.80;;;;;;6161484;23;20520;-83
2021/09/02 06:30:23;;;;;;;19.43;11.37;;;13.20;99.80;;;;;;6159658;23;20444;-83
2021/09/02 06:32:53;;;;;;;17.33;9.97;;;13.20;99.80;;;;;;6170710;23;20437;-83
2021/09/02 06:35:21;;;;;;;14.30;9.80;;;13.30;99.80;;;;;;6178148;23;20446;-85
2021/09/02 06:37:49;;;;;;;20.93;11.10;;;13.40;99.80;;;;;;6165488;23;20441;-83
2021/09/02 06:40:17;;;;;;;15.37;10.23;;;13.50;99.80;;;;;;6172180;23;20527;-84
2021/09/02 06:42:45;;;;;;;16.83;9.03;;;13.50;99.80;;;;;;6162685;23;20455;-84
2021/09/02 06:45:13;;;;;;;17.20;10.43;;;13.60;99.80;;;;;;6155387;23;21131;-82
2021/09/02 06:47:42;;;;;;;18.77;9.87;;;13.60;99.80;;;;;;6162719;23;20443;-83
2021/09/02 06:50:14;;;;;;;23.13;10.43;;;13.70;99.80;;;;;;6179570;23;20429;-82
2021/09/02 06:52:42;;;;;;;19.67;9.43;;;13.80;99.80;;;;;;6179208;23;21070;-83
2021/09/02 06:55:11;;;;;;;16.27;9.80;;;13.90;99.80;;;;;;6180264;23;20429;-82
2021/09/02 06:57:40;;;;;;;17.03;11.43;;;14.00;99.80;;;;;;6179454;23;20921;-82
2021/09/02 07:00:10;;;;;;;19.73;9.60;;;14.00;99.80;;;;;;6129146;23;20450;-83
2021/09/02 07:02:38;;;;;;;19.57;9.40;;;14.10;99.80;;;;;;6138823;23;20440;-81
2021/09/02 07:05:08;;;;;;;20.80;9.93;;;14.20;99.80;;;;;;6172676;23;20436;-82
2021/09/02 07:07:38;;;;;;;19.37;10.17;;;14.30;99.80;;;;;;6157197;23;20440;-84
2021/09/02 07:10:07;;;;;;;18.23;9.50;;;14.40;99.80;;;;;;6113438;23;20425;-82
2021/09/02 07:12:35;;;;;;;13.27;9.27;;;14.40;99.80;;;;;;6161407;23;20437;-82
2021/09/02 07:15:03;;;;;;;16.23;9.93;;;14.50;99.80;;;;;;6163052;23;20527;-83
2021/09/02 07:17:32;;;;;;;16.27;9.60;;;14.50;99.80;;;;;;6162665;23;20455;-83
2021/09/02 07:20:00;;;;;;;14.10;9.83;;;14.60;99.80;;;;;;6132852;23;20465;-83
2021/09/02 07:22:29;;;;;;;15.83;10.40;;;;;;;;;;6146004;23;20808;-83
2021/09/02 07:24:58;;;;;;;13.30;9.00;;;14.70;99.80;;;;;;6145226;23;20434;-82
2021/09/02 07:27:26;;;;;;;16.93;9.50;;;14.80;99.80;;;;;;6109352;23;20435;-83
2021/09/02 07:29:54;;;;;;;22.27;10.87;;;15.00;99.80;;;;;;6116445;23;20512;-81
2021/09/02 07:32:22;;;;;;;17.73;9.17;;;15.10;99.80;;;;;;6119697;23;20523;-84
2021/09/02 07:34:50;;;;;;;14.70;9.50;;;15.20;99.80;;;;;;6176154;23;20803;-83
2021/09/02 07:37:19;;;;;;;14.97;9.93;;;15.30;99.80;;;;;;6174340;23;20464;-83
2021/09/02 07:39:47;;;;;;;13.10;8.63;;;15.40;99.80;;;;;;6143475;23;20441;-82
2021/09/02 07:42:17;;;;;;;18.87;9.53;;;15.50;99.80;;;;;;6117867;23;20439;-82
2021/09/02 07:44:45;;;;;;;13.00;8.90;;;15.60;99.80;;;;;;6112089;23;20510;-83
2021/09/02 07:47:14;;;;;;;14.67;9.10;;;15.80;99.80;;;;;;6105400;23;20445;-82
2021/09/02 07:49:42;;;;;;;17.70;8.87;;;15.90;99.80;;;;;;6146338;23;21043;-82
2021/09/02 07:52:10;;;;;;;17.17;8.90;;;;;;;;;;6121055;23;20441;-83
2021/09/02 07:54:42;;;;;;;14.83;8.83;;;16.10;99.80;;;;;;6106501;23;20515;-82
2021/09/02 07:57:10;;;;;;;15.40;9.30;;;16.20;99.80;;;;;;6118672;23;20913;-82
2021/09/02 07:59:40;;;;;;;12.40;8.60;;;16.20;99.80;;;;;;6121599;23;20440;-82
2021/09/02 08:02:08;;;;;;;13.40;9.40;;;16.20;99.80;;;;;;6081831;23;20497;-83
2021/09/02 08:04:36;;;;;;;20.57;9.50;;;;;;;;;;6151598;23;20993;-83
2021/09/02 08:07:04;;;;;;;12.53;9.30;;;16.40;99.80;;;;;;6175075;23;20443;-82
2021/09/02 08:09:32;;;;;;;13.53;8.30;;;16.40;99.80;;;;;;6177461;23;20444;-83
2021/09/02 08:12:00;;;;;;;15.00;9.03;;;16.50;99.80;;;;;;6139800;23;20435;-82
2021/09/02 08:14:28;;;;;;;12.93;9.17;;;16.60;99.80;;;;;;6124909;23;20796;-83
2021/09/02 08:16:58;;;;;;;11.93;8.93;;;16.70;99.80;;;;;;6132127;23;20597;-83
2021/09/02 08:19:26;;;;;;;15.60;9.00;;;16.80;99.80;;;;;;6142151;23;20504;-85
2021/09/02 08:21:54;;;;;;;16.00;9.47;;;;;;;;;;6147332;23;20527;-85
2021/09/02 08:24:22;;;;;;;12.03;8.47;;;17.00;99.80;;;;;;6122931;23;20808;-85
2021/09/02 08:26:50;;;;;;;20.30;10.23;;;17.20;99.80;;;;;;6123232;23;20466;-83
2021/09/02 08:29:18;;;;;;;22.80;9.27;;;17.30;99.80;;;;;;6111103;23;20453;-83
2021/09/02 08:31:46;;;;;;;10.00;7.63;;;17.50;99.80;;;;;;6123848;23;20815;-84
2021/09/02 08:34:15;;;;;;;12.23;8.17;;;17.70;99.80;;;;;;6151989;23;20824;-83
2021/09/02 08:36:43;;;;;;;15.63;7.73;;;17.80;99.80;;;;;;6179925;23;20526;-85
2021/09/02 08:39:11;;;;;;;12.80;8.07;;;18.00;99.80;;;;;;6178158;23;20447;-84
2021/09/02 08:41:39;;;;;;;13.07;8.00;;;;;;;;;;6178506;23;20441;-83
2021/09/02 08:44:09;;;;;;;10.60;7.30;;;18.30;99.80;;;;;;6153577;23;20433;-84
2021/09/02 08:46:37;;;;;;;12.27;7.70;;;18.40;99.80;;;;;;6153110;23;21013;-83
2021/09/02 08:49:06;;;;;;;12.00;8.20;;;18.60;99.80;;;;;;6135232;23;20525;-84
2021/09/02 08:51:36;;;;;;;13.10;7.60;;;18.70;99.80;;;;;;6177183;23;20512;-83
2021/09/02 08:54:05;;;;;;;13.73;7.63;;;18.70;99.80;;;;;;6122078;23;20517;-84
2021/09/02 08:56:33;;;;;;;11.93;9.20;;;;;;;;;;6121665;23;21004;-85
2021/09/02 08:59:01;;;;;;;15.50;9.93;;;;;;;;;;6135612;23;20464;-85
2021/09/02 09:01:30;;;;;;;14.63;8.00;;;;;;;;;;6118315;23;20442;-86
2021/09/02 09:03:58;;;;;;;16.47;9.57;;;;;;;;;;6136418;23;20445;-84
2021/09/02 09:06:29;;;;;;;14.60;8.97;;;19.30;99.80;;;;;;6120107;23;20461;-84
2021/09/02 09:08:58;;;;;;;8.50;7.60;;;19.50;99.80;;;;;;6147375;23;21085;-85
2021/09/02 09:11:29;;;;;;;10.87;7.83;;;19.60;99.80;;;;;;6130932;23;20437;-85
2021/09/02 09:14:10;;;;;;;11.87;8.30;;;19.70;99.80;;;;;;6132935;23;20475;-85
2021/09/02 09:16:49;;;;;;;14.37;7.27;;;19.80;99.80;;;;;;6131151;23;20441;-85
2021/09/02 09:19:37;;;;;;;13.30;7.93;;;19.90;99.80;;;;;;6130957;23;20433;-86
2021/09/02 09:22:08;;;;;;;12.57;8.40;;;20.10;99.80;;;;;;6147005;23;20441;-85
2021/09/02 09:24:47;;;;;;;14.97;8.83;;;20.10;99.80;;;;;;6137699;23;20429;-84
2021/09/02 09:27:17;;;;;;;15.50;8.70;;;20.20;99.80;;;;;;6126834;23;20945;-85
2021/09/02 09:29:45;;;;;;;13.47;7.70;;;20.40;99.80;;;;;;6084414;23;20442;-84
2021/09/02 09:32:16;;;;;;;8.87;6.97;;;20.50;99.80;;;;;;6116721;23;20485;-84
2021/09/02 09:34:49;;;;;;;10.87;7.37;;;20.70;99.80;;;;;;6131859;23;20518;-84
2021/09/02 09:37:17;;;;;;;13.10;8.40;;;20.80;99.80;;;;;;6119922;23;20530;-84
2021/09/02 09:39:48;;;;;;;14.77;8.20;;;20.90;99.80;;;;;;6121682;23;20435;-85
2021/09/02 09:42:18;;;;;;;10.20;7.67;;;;;;;;;;6113861;23;20441;-84
2021/09/02 09:44:46;;;;;;;14.27;8.77;;;21.20;99.80;;;;;;6109170;23;20453;-84
2021/09/02 09:47:15;;;;;;;11.30;7.83;;;21.30;99.80;;;;;;6128521;23;20438;-85
2021/09/02 09:49:52;;;;;;;15.13;9.07;;;21.50;99.80;;;;;;6147877;23;20948;-85
2021/09/02 09:52:26;;;;;;;18.50;13.03;;;21.70;99.80;;;;;;6146209;23;20841;-84
2021/09/02 09:55:04;;;;;;;13.17;9.20;;;21.80;99.80;;;;;;6137579;23;20465;-85
2021/09/02 09:57:34;;;;;;;13.20;8.90;;;22.00;99.80;;;;;;6105480;23;20501;-85
2021/09/02 10:00:08;;;;;;;11.80;8.00;;;22.20;99.80;;;;;;6118754;23;20528;-85
2021/09/02 10:02:37;;;;;;;12.70;8.73;;;22.20;99.80;;;;;;6110862;23;21301;-85
2021/09/02 10:05:08;;;;;;;15.13;10.67;;;22.30;99.80;;;;;;6145444;23;20516;-85
2021/09/02 10:07:37;;;;;;;12.90;8.87;;;22.50;99.80;;;;;;6117578;23;20425;-85
2021/09/02 10:10:09;;;;;;;9.87;7.33;;;;;;;;;;6104093;23;20436;-85
2021/09/02 10:12:38;;;;;;;8.97;6.50;;;22.90;99.80;;;;;;6119769;23;21040;-85
2021/09/02 10:15:07;;;;;;;10.83;7.30;;;23.20;99.00;;;;;;6122099;23;20438;-85
2021/09/02 10:17:38;;;;;;;11.13;8.07;;;23.50;98.60;;;;;;6118067;23;20434;-85
2021/09/02 10:20:13;;;;;;;11.13;8.43;;;23.80;97.00;;;;;;6145881;23;20442;-85
2021/09/02 10:22:42;;;;;;;11.73;7.57;;;23.90;95.20;;;;;;6143755;23;20964;-85
2021/09/02 10:25:37;;;;;;;8.23;6.50;;;24.00;93.80;;;;;;6146963;23;20438;-85
2021/09/02 10:28:08;;;;;;;13.97;6.80;;;23.90;94.20;;;;;;6120206;23;20842;-85
2021/09/02 10:30:44;;;;;;;11.40;6.40;;;23.60;95.00;;;;;;6120288;23;20559;-85
2021/09/02 10:33:33;;;;;;;10.97;8.47;;;23.50;97.00;;;;;;6118365;23;20459;-85
2021/09/02 10:36:03;;;;;;;11.07;7.93;;;23.70;96.80;;;;;;6146213;23;20440;-85
2021/09/02 10:38:39;;;;;;;12.23;7.23;;;23.60;95.30;;;;;;6117062;23;20444;-85
2021/09/02 10:41:10;;;;;;;9.10;7.33;;;23.40;96.10;;;;;;6120816;23;20829;-84
2021/09/02 10:44:01;;;;;;;7.33;6.17;;;23.20;95.10;;;;;;6106646;23;20518;-85
2021/09/02 10:46:36;;;;;;;8.67;7.10;;;22.70;96.90;;;;;;6120922;23;20422;-84
2021/09/02 10:49:18;;;;;;;8.70;7.13;;;22.60;97.50;;;;;;6147767;23;20886;-85
2021/09/02 10:51:48;;;;;;;9.77;7.17;;;22.80;96.40;;;;;;6149114;23;20434;-85
2021/09/02 10:54:22;;;;;;;10.83;6.67;;;23.30;95.00;;;;;;6136979;23;20444;-85
2021/09/02 10:57:00;;;;;;;10.30;6.60;;;23.80;93.00;;;;;;6144126;23;20961;-85
2021/09/02 10:59:50;;;;;;;9.57;6.27;;;24.10;92.40;;;;;;6117479;23;20445;-84
2021/09/02 11:02:43;;;;;;;8.77;6.80;;;24.10;91.70;;;;;;6101669;23;20521;-85
2021/09/02 11:05:15;;;;;;;11.17;6.30;;;23.90;92.60;;;;;;6146855;23;20434;-85
2021/09/02 11:07:45;;;;;;;9.73;6.37;;;24.10;91.40;;;;;;6143112;23;20441;-85
2021/09/02 11:10:17;;;;;;;7.20;6.17;;;24.50;90.80;;;;;;6121108;23;20528;-84
2021/09/02 11:12:47;;;;;;;8.70;6.70;;;24.90;89.30;;;;;;6115904;23;20437;-85
2021/09/02 11:15:23;;;;;;;7.87;6.57;;;;;;;;;;6102899;23;20464;-83
2021/09/02 11:17:52;;;;;;;7.50;6.57;;;;;;;;;;6119653;23;20445;-83
2021/09/02 11:20:41;;;;;;;6.70;5.53;;;;;;;;;;6119711;23;20946;-83
2021/09/02 11:23:10;;;;;;;7.27;6.13;;;;;;;;;;6091133;23;20444;-82
2021/09/02 11:25:43;;;;;;;9.40;6.37;;;;;;;;;;6103025;23;20465;-82
2021/09/02 11:28:13;;;;;;;11.63;6.70;;;;;;;;;;6117404;23;20440;-82
2021/09/02 11:30:42;;;;;;;9.40;6.23;;;;;;;;;;6119622;23;20445;-84
2021/09/02 11:33:10;;;;;;;7.40;5.47;;;;;;;;;;6104437;23;20447;-84
2021/09/02 11:35:39;;;;;;;7.10;5.40;;;;;;;;;;6150026;23;20788;-84
2021/09/02 11:38:07;;;;;;;6.37;5.60;;;;;;;;;;6142631;23;20442;-84
2021/09/02 11:40:36;;;;;;;6.10;5.50;;;;;;;;;;6134215;23;20467;-85
2021/09/02 11:43:06;;;;;;;6.30;5.70;;;;;;;;;;6116270;23;20452;-83
2021/09/02 11:45:35;;;;;;;6.57;5.97;;;;;;;;;;6117403;23;20567;-83
2021/09/02 11:48:04;;;;;;;6.70;5.40;;;;;;;;;;6116059;23;20891;-83
2021/09/02 11:50:33;;;;;;;4.90;4.40;;;;;;;;;;6130444;23;21138;-81
2021/09/02 11:53:02;;;;;;;5.40;4.90;;;;;;;;;;6105664;23;20963;-80
2021/09/02 11:55:33;;;;;;;5.93;4.50;;;35.40;60.40;;;;;;6120818;23;20449;-81
2021/09/02 11:58:04;;;;;;;5.10;4.50;;;33.50;63.90;;;;;;6120495;23;20542;-79
2021/09/02 12:00:33;;;;;;;5.53;4.93;;;31.30;68.80;;;;;;6118997;23;20437;-80
2021/09/02 12:03:05;;;;;;;5.40;4.90;;;29.50;72.50;;;;;;6118205;23;20438;-80
2021/09/02 12:05:38;;;;;;;6.60;5.47;;;27.90;76.40;;;;;;6143711;23;20441;-81
2021/09/02 12:08:09;;;;;;;6.10;5.50;;;26.70;80.20;;;;;;6143412;23;20516;-82
2021/09/02 12:10:38;;;;;;;5.50;5.00;;;28.30;76.40;;;;;;6148763;23;20529;-82
2021/09/02 12:13:20;;;;;;;6.00;5.40;;;28.70;73.50;;;;;;6121834;23;21023;-81
2021/09/02 12:16:02;;;;;;;5.07;4.67;;;28.20;75.50;;;;;;6124311;23;20517;-81
2021/09/02 12:18:32;;;;;;;7.57;4.90;;;;;;;;;;6134890;23;20488;-84
2021/09/02 12:21:08;;;;;;;5.10;4.60;;;;;;;;;;6173465;23;20440;-85
2021/09/02 12:23:47;;;;;;;6.40;5.40;;;;;;;;;;6146016;23;20991;-83
2021/09/02 12:26:16;;;;;;;5.10;4.30;;;34.50;62.30;;;;;;6120438;23;20457;-82
2021/09/02 12:28:46;;;;;;;8.53;5.40;;;33.40;63.40;;;;;;6107499;23;20464;-84
2021/09/02 12:31:16;;;;;;;6.33;5.07;;;31.10;67.90;;;;;;6134383;23;20442;-82
2021/09/02 12:34:00;;;;;;;5.40;4.63;;;29.50;72.60;;;;;;6130031;23;20434;-83
2021/09/02 12:36:30;;;;;;;8.57;4.83;;;28.80;74.40;;;;;;6176825;23;20441;-82
2021/09/02 12:39:16;;;;;;;5.70;4.90;;;28.70;74.60;;;;;;6177949;23;20515;-82
2021/09/02 12:41:45;;;;;;;6.27;5.67;;;29.40;72.60;;;;;;6173196;23;20507;-83
2021/09/02 12:44:20;;;;;;;6.50;5.63;;;28.20;74.50;;;;;;6150690;23;20448;-82
2021/09/02 12:47:04;;;;;;;6.70;5.60;;;27.50;77.20;;;;;;6119869;23;20464;-84
2021/09/02 12:49:41;;;;;;;6.50;5.60;;;28.00;74.80;;;;;;6129920;23;20442;-82
2021/09/02 12:52:20;;;;;;;5.73;5.13;;;27.70;76.30;;;;;;6176942;23;20440;-82
2021/09/02 12:55:16;;;;;;;6.23;5.53;;;28.70;75.30;;;;;;6114245;23;20505;-82
2021/09/02 12:57:45;;;;;;;5.93;5.00;;;;;;;;;;6124817;23;20441;-83
2021/09/02 13:00:15;;;;;;;4.87;4.40;;;33.80;65.50;;;;;;6112447;23;20437;-82
2021/09/02 13:02:45;;;;;;;7.63;5.17;;;35.80;60.10;;;;;;6120559;23;20437;-83